TimeEST,TemperatureF,Dew PointF,Humidity,Sea Level PressureIn,VisibilityMPH,Wind Direction,Wind SpeedMPH,Gust SpeedMPH,PrecipitationIn,Events,Conditions,WindDirDegrees,DateUTC
12:11 AM,33.8,30.2,87,29.93,4.0,Calm,Calm,-,0.00,,Overcast,0,2013-02-06 05:11:00
12:18 AM,33.8,30.2,87,29.94,3.0,Calm,Calm,-,0.00,,Overcast,0,2013-02-06 05:18:00
12:20 AM,33.8,30.2,87,29.94,1.8,Calm,Calm,-,0.00,,Overcast,0,2013-02-06 05:20:00
12:32 AM,33.8,32.0,93,29.94,3.0,Calm,Calm,-,0.00,,Overcast,0,2013-02-06 05:32:00
12:53 AM,33.1,30.9,92,29.97,5.0,WNW,6.9,-,0.00,,Overcast,300,2013-02-06 05:53:00
1:10 AM,33.8,30.2,87,29.96,8.0,WNW,8.1,-,N/A,,Overcast,290,2013-02-06 06:10:00
1:53 AM,33.1,28.0,82,29.99,9.0,West,8.1,-,N/A,,Overcast,270,2013-02-06 06:53:00
2:53 AM,32.0,27.0,82,30.04,8.0,West,9.2,-,N/A,,Overcast,270,2013-02-06 07:53:00
3:32 AM,32.0,26.6,80,30.04,8.0,West,8.1,-,N/A,,Overcast,280,2013-02-06 08:32:00
3:45 AM,32.0,26.6,80,30.05,8.0,West,10.4,-,N/A,,Overcast,280,2013-02-06 08:45:00
3:53 AM,32.0,26.1,79,30.07,8.0,WNW,9.2,-,N/A,,Overcast,290,2013-02-06 08:53:00
4:53 AM,32.0,26.1,79,30.10,8.0,West,6.9,-,N/A,,Overcast,280,2013-02-06 09:53:00
5:00 AM,32.0,26.6,80,30.08,8.0,WNW,6.9,-,N/A,,Overcast,290,2013-02-06 10:00:00
5:53 AM,30.9,26.1,82,30.12,8.0,WNW,9.2,-,N/A,,Overcast,290,2013-02-06 10:53:00
6:26 AM,30.2,26.6,86,30.12,7.0,WSW,3.5,-,N/A,,Overcast,250,2013-02-06 11:26:00
6:53 AM,30.9,26.1,82,30.15,7.0,Calm,Calm,-,N/A,,Overcast,0,2013-02-06 11:53:00
7:06 AM,30.2,26.6,86,30.12,7.0,Calm,Calm,-,N/A,,Overcast,0,2013-02-06 12:06:00
7:53 AM,30.9,27.0,85,30.16,5.0,SW,3.5,-,N/A,,Overcast,220,2013-02-06 12:53:00
8:49 AM,32.0,26.6,80,30.17,5.0,West,3.5,-,N/A,,Haze,260,2013-02-06 13:49:00
8:53 AM,32.0,27.0,82,30.19,5.0,WSW,3.5,-,N/A,,Haze,240,2013-02-06 13:53:00
9:53 AM,32.0,28.0,85,30.20,5.0,WSW,4.6,-,N/A,,Overcast,250,2013-02-06 14:53:00
10:07 AM,32.0,26.6,80,30.18,5.0,Calm,Calm,-,N/A,,Haze,0,2013-02-06 15:07:00
10:32 AM,32.0,26.6,80,30.19,6.0,WNW,5.8,-,N/A,,Haze,290,2013-02-06 15:32:00
10:40 AM,32.0,26.6,80,30.20,6.0,West,8.1,-,N/A,,Haze,280,2013-02-06 15:40:00
10:53 AM,32.0,27.0,82,30.22,6.0,WNW,5.8,-,N/A,,Haze,300,2013-02-06 15:53:00
11:00 AM,32.0,26.6,80,30.20,6.0,WNW,5.8,-,N/A,,Haze,290,2013-02-06 16:00:00
11:53 AM,33.1,27.0,78,30.22,6.0,WNW,4.6,-,0.03,,Haze,300,2013-02-06 16:53:00
12:53 PM,33.1,27.0,78,30.23,7.0,North,5.8,-,0.01,,Overcast,350,2013-02-06 17:53:00
1:53 PM,33.1,26.1,75,30.24,7.0,NW,4.6,-,N/A,,Overcast,310,2013-02-06 18:53:00
2:53 PM,33.1,27.0,78,30.25,7.0,WNW,4.6,-,N/A,,Overcast,290,2013-02-06 19:53:00
3:53 PM,33.1,27.0,78,30.27,7.0,WNW,5.8,-,N/A,,Overcast,300,2013-02-06 20:53:00
4:06 PM,33.8,26.6,75,30.25,7.0,NW,5.8,-,N/A,,Overcast,310,2013-02-06 21:06:00
4:53 PM,33.1,26.1,75,30.27,7.0,Calm,Calm,-,N/A,,Overcast,0,2013-02-06 21:53:00
5:53 PM,33.1,25.0,72,30.28,8.0,Calm,Calm,-,N/A,,Overcast,0,2013-02-06 22:53:00
6:53 PM,30.0,25.0,82,30.30,8.0,Calm,Calm,-,N/A,,Overcast,0,2013-02-06 23:53:00
7:53 PM,28.9,24.1,82,30.31,6.0,Calm,Calm,-,N/A,,Haze,0,2013-02-07 00:53:00
8:53 PM,28.0,25.0,88,30.32,7.0,Calm,Calm,-,N/A,,Overcast,0,2013-02-07 01:53:00
9:53 PM,27.0,23.0,85,30.31,6.0,Calm,Calm,-,N/A,,Clear,0,2013-02-07 02:53:00
10:53 PM,26.1,24.1,92,30.28,5.0,Calm,Calm,-,N/A,,Clear,0,2013-02-07 03:53:00
11:37 PM,23.0,19.4,86,30.26,2.5,Calm,Calm,-,N/A,,Clear,0,2013-02-07 04:37:00
11:53 PM,24.1,21.9,91,30.29,2.5,Calm,Calm,-,N/A,,Clear,0,2013-02-07 04:53:00